Terminal Aerodrome Forecast
Issued by NWS Wichita, KS

Home | Current Version | Previous Version | Graphics & Text | Print | Product List | Glossary On
Versions: 1 2 3 4 5 6 7 8 9 10 11 12
411
FTUS43 KICT 220520
TAFICT
TAF
KICT 220520Z 2206/2306 17010KT P6SM SKC
     FM221500 22012KT P6SM SKC
     FM221900 21012G19KT P6SM FEW090
     FM230000 18010KT P6SM SKC=

USA.gov is the U.S. government's official web portal to all federal, state and local government web resources and services.